sensor_id;sensor_type;location;lat;lon;timestamp;pressure;altitude;pressure_sealevel;temperature;humidity
62057;BME280;48016;50.284;18.860;2023-05-02T00:00:51;98082.50;;;10.75;50.93
62057;BME280;48016;50.284;18.860;2023-05-02T00:03:17;98082.16;;;10.74;51.24
62057;BME280;48016;50.284;18.860;2023-05-02T00:05:44;98077.77;;;10.72;51.65
62057;BME280;48016;50.284;18.860;2023-05-02T00:08:11;98076.45;;;10.70;51.29
62057;BME280;48016;50.284;18.860;2023-05-02T00:10:38;98073.73;;;10.67;51.34
62057;BME280;48016;50.284;18.860;2023-05-02T00:13:04;98072.27;;;10.65;51.76
62057;BME280;48016;50.284;18.860;2023-05-02T00:15:31;98072.58;;;10.63;51.79
62057;BME280;48016;50.284;18.860;2023-05-02T00:17:57;98072.28;;;10.60;52.17
62057;BME280;48016;50.284;18.860;2023-05-02T00:20:24;98070.05;;;10.57;52.26
62057;BME280;48016;50.284;18.860;2023-05-02T00:22:51;98065.77;;;10.55;52.13
62057;BME280;48016;50.284;18.860;2023-05-02T00:25:17;98067.64;;;10.53;52.89
62057;BME280;48016;50.284;18.860;2023-05-02T00:27:44;98063.12;;;10.48;52.83
62057;BME280;48016;50.284;18.860;2023-05-02T00:30:12;98065.23;;;10.48;52.66
62057;BME280;48016;50.284;18.860;2023-05-02T00:32:39;98061.98;;;10.47;53.21
62057;BME280;48016;50.284;18.860;2023-05-02T00:35:06;98065.01;;;10.47;53.03
62057;BME280;48016;50.284;18.860;2023-05-02T00:37:33;98064.04;;;10.47;53.41
62057;BME280;48016;50.284;18.860;2023-05-02T00:40:00;98060.67;;;10.47;53.57
62057;BME280;48016;50.284;18.860;2023-05-02T00:42:28;98062.42;;;10.47;53.42
62057;BME280;48016;50.284;18.860;2023-05-02T00:44:59;98063.73;;;10.49;53.77
62057;BME280;48016;50.284;18.860;2023-05-02T00:47:26;98064.07;;;10.51;53.97
62057;BME280;48016;50.284;18.860;2023-05-02T00:49:52;98062.02;;;10.51;54.27
62057;BME280;48016;50.284;18.860;2023-05-02T00:52:19;98062.92;;;10.50;54.26
62057;BME280;48016;50.284;18.860;2023-05-02T00:54:46;98061.01;;;10.48;54.50
62057;BME280;48016;50.284;18.860;2023-05-02T00:57:12;98065.38;;;10.47;54.31
62057;BME280;48016;50.284;18.860;2023-05-02T00:59:39;98065.70;;;10.46;54.61
62057;BME280;48016;50.284;18.860;2023-05-02T01:05:25;98058.40;;;10.45;54.38
62057;BME280;48016;50.284;18.860;2023-05-02T01:08:02;98057.16;;;10.46;54.82
62057;BME280;48016;50.284;18.860;2023-05-02T01:10:46;98059.65;;;10.47;54.72
62057;BME280;48016;50.284;18.860;2023-05-02T01:13:20;98059.17;;;10.49;54.73
62057;BME280;48016;50.284;18.860;2023-05-02T01:15:49;98064.23;;;10.51;54.83
62057;BME280;48016;50.284;18.860;2023-05-02T01:18:20;98066.98;;;10.52;54.85
62057;BME280;48016;50.284;18.860;2023-05-02T01:20:52;98059.58;;;10.52;55.35
62057;BME280;48016;50.284;18.860;2023-05-02T01:23:37;98058.95;;;10.52;54.88
62057;BME280;48016;50.284;18.860;2023-05-02T01:26:15;98062.29;;;10.53;55.03
62057;BME280;48016;50.284;18.860;2023-05-02T01:28:58;98064.45;;;10.53;55.30
62057;BME280;48016;50.284;18.860;2023-05-02T01:31:29;98062.30;;;10.54;55.58
62057;BME280;48016;50.284;18.860;2023-05-02T01:33:57;98059.11;;;10.55;55.35
62057;BME280;48016;50.284;18.860;2023-05-02T01:36:28;98061.10;;;10.55;55.65
62057;BME280;48016;50.284;18.860;2023-05-02T01:38:56;98057.01;;;10.55;55.57
62057;BME280;48016;50.284;18.860;2023-05-02T01:41:26;98056.19;;;10.54;55.68
62057;BME280;48016;50.284;18.860;2023-05-02T01:43:56;98054.13;;;10.53;55.97
62057;BME280;48016;50.284;18.860;2023-05-02T01:46:32;98051.85;;;10.53;56.05
62057;BME280;48016;50.284;18.860;2023-05-02T01:49:02;98052.66;;;10.53;55.97
62057;BME280;48016;50.284;18.860;2023-05-02T01:51:34;98050.77;;;10.52;55.96
62057;BME280;48016;50.284;18.860;2023-05-02T01:54:04;98051.46;;;10.51;56.13
62057;BME280;48016;50.284;18.860;2023-05-02T01:56:35;98051.40;;;10.49;56.42
62057;BME280;48016;50.284;18.860;2023-05-02T01:59:07;98050.73;;;10.47;56.37
62057;BME280;48016;50.284;18.860;2023-05-02T02:01:37;98051.42;;;10.44;56.58
62057;BME280;48016;50.284;18.860;2023-05-02T02:04:06;98050.91;;;10.41;56.43
62057;BME280;48016;50.284;18.860;2023-05-02T02:06:34;98051.05;;;10.37;56.72
62057;BME280;48016;50.284;18.860;2023-05-02T02:09:01;98053.95;;;10.34;57.11
62057;BME280;48016;50.284;18.860;2023-05-02T02:12:15;98052.03;;;10.30;57.17
62057;BME280;48016;50.284;18.860;2023-05-02T02:14:24;98053.23;;;10.24;57.18
62057;BME280;48016;50.284;18.860;2023-05-02T02:16:55;98046.35;;;10.20;57.47
62057;BME280;48016;50.284;18.860;2023-05-02T02:19:25;98049.35;;;10.17;57.54
62057;BME280;48016;50.284;18.860;2023-05-02T02:21:54;98045.55;;;10.14;57.48
62057;BME280;48016;50.284;18.860;2023-05-02T02:24:22;98045.53;;;10.12;57.82
62057;BME280;48016;50.284;18.860;2023-05-02T02:26:50;98050.11;;;10.11;57.69
62057;BME280;48016;50.284;18.860;2023-05-02T02:29:16;98052.27;;;10.09;57.52
62057;BME280;48016;50.284;18.860;2023-05-02T02:31:43;98050.90;;;10.07;57.69
62057;BME280;48016;50.284;18.860;2023-05-02T02:34:09;98053.31;;;10.06;57.60
62057;BME280;48016;50.284;18.860;2023-05-02T02:36:44;98050.80;;;10.05;57.74
62057;BME280;48016;50.284;18.860;2023-05-02T02:39:28;98051.23;;;10.03;57.84
62057;BME280;48016;50.284;18.860;2023-05-02T02:42:03;98051.05;;;10.01;57.93
62057;BME280;48016;50.284;18.860;2023-05-02T02:44:55;98050.98;;;9.98;57.88
62057;BME280;48016;50.284;18.860;2023-05-02T02:47:32;98047.88;;;9.95;58.05
62057;BME280;48016;50.284;18.860;2023-05-02T02:50:22;98053.89;;;9.92;58.03
62057;BME280;48016;50.284;18.860;2023-05-02T02:53:01;98054.80;;;9.90;58.17
62057;BME280;48016;50.284;18.860;2023-05-02T02:55:44;98057.88;;;9.89;58.26
62057;BME280;48016;50.284;18.860;2023-05-02T03:00:45;98057.11;;;9.88;58.16
62057;BME280;48016;50.284;18.860;2023-05-02T03:03:16;98062.83;;;9.89;58.00
62057;BME280;48016;50.284;18.860;2023-05-02T03:05:44;98065.31;;;9.88;58.02
62057;BME280;48016;50.284;18.860;2023-05-02T03:08:11;98060.13;;;9.87;58.01
62057;BME280;48016;50.284;18.860;2023-05-02T03:10:39;98065.46;;;9.87;58.16
62057;BME280;48016;50.284;18.860;2023-05-02T03:13:05;98061.77;;;9.85;58.28
62057;BME280;48016;50.284;18.860;2023-05-02T03:18:13;98059.57;;;9.81;58.44
62057;BME280;48016;50.284;18.860;2023-05-02T03:20:40;98060.69;;;9.79;58.51
62057;BME280;48016;50.284;18.860;2023-05-02T03:23:07;98060.79;;;9.77;58.26
62057;BME280;48016;50.284;18.860;2023-05-02T03:25:34;98060.88;;;9.74;58.49
62057;BME280;48016;50.284;18.860;2023-05-02T03:28:00;98061.39;;;9.72;58.69
62057;BME280;48016;50.284;18.860;2023-05-02T03:30:27;98065.85;;;9.71;58.54
62057;BME280;48016;50.284;18.860;2023-05-02T03:32:53;98066.64;;;9.70;58.93
62057;BME280;48016;50.284;18.860;2023-05-02T03:35:20;98063.35;;;9.69;58.95
62057;BME280;48016;50.284;18.860;2023-05-02T03:37:47;98062.95;;;9.68;59.25
62057;BME280;48016;50.284;18.860;2023-05-02T03:40:13;98063.23;;;9.69;59.28
62057;BME280;48016;50.284;18.860;2023-05-02T03:42:41;98065.69;;;9.70;59.17
62057;BME280;48016;50.284;18.860;2023-05-02T03:45:07;98065.91;;;9.71;59.49
62057;BME280;48016;50.284;18.860;2023-05-02T03:47:34;98070.25;;;9.69;59.50
62057;BME280;48016;50.284;18.860;2023-05-02T03:50:01;98070.73;;;9.71;59.33
62057;BME280;48016;50.284;18.860;2023-05-02T03:52:28;98068.02;;;9.73;59.50
62057;BME280;48016;50.284;18.860;2023-05-02T03:54:56;98069.68;;;9.77;59.42
62057;BME280;48016;50.284;18.860;2023-05-02T03:57:22;98071.67;;;9.81;59.33
62057;BME280;48016;50.284;18.860;2023-05-02T03:59:49;98072.42;;;9.86;59.22
62057;BME280;48016;50.284;18.860;2023-05-02T04:02:15;98072.48;;;9.91;59.44
62057;BME280;48016;50.284;18.860;2023-05-02T04:04:42;98070.95;;;9.96;59.19
62057;BME280;48016;50.284;18.860;2023-05-02T04:07:09;98074.17;;;10.02;59.13
62057;BME280;48016;50.284;18.860;2023-05-02T04:09:41;98074.46;;;10.09;59.07
62057;BME280;48016;50.284;18.860;2023-05-02T04:12:07;98076.95;;;10.16;58.98
62057;BME280;48016;50.284;18.860;2023-05-02T04:14:34;98079.60;;;10.23;58.82
62057;BME280;48016;50.284;18.860;2023-05-02T04:17:00;98080.02;;;10.31;58.67
62057;BME280;48016;50.284;18.860;2023-05-02T04:19:27;98077.45;;;10.40;58.56
62057;BME280;48016;50.284;18.860;2023-05-02T04:21:53;98081.37;;;10.52;58.41
62057;BME280;48016;50.284;18.860;2023-05-02T04:24:20;98086.48;;;10.64;58.14
62057;BME280;48016;50.284;18.860;2023-05-02T04:26:47;98086.83;;;10.76;57.92
62057;BME280;48016;50.284;18.860;2023-05-02T04:29:14;98088.40;;;10.87;57.67
62057;BME280;48016;50.284;18.860;2023-05-02T04:31:41;98086.61;;;10.97;57.44
62057;BME280;48016;50.284;18.860;2023-05-02T04:34:08;98088.02;;;11.06;57.29
62057;BME280;48016;50.284;18.860;2023-05-02T04:36:34;98088.87;;;11.15;56.99
62057;BME280;48016;50.284;18.860;2023-05-02T04:39:01;98086.54;;;11.25;56.72
62057;BME280;48016;50.284;18.860;2023-05-02T04:41:29;98088.48;;;11.38;56.59
62057;BME280;48016;50.284;18.860;2023-05-02T04:43:55;98090.37;;;11.51;56.25
62057;BME280;48016;50.284;18.860;2023-05-02T04:46:22;98089.44;;;11.65;56.17
62057;BME280;48016;50.284;18.860;2023-05-02T04:48:48;98090.45;;;11.79;55.97
62057;BME280;48016;50.284;18.860;2023-05-02T04:51:15;98093.96;;;11.93;55.42
62057;BME280;48016;50.284;18.860;2023-05-02T04:53:42;98094.46;;;12.08;55.25
62057;BME280;48016;50.284;18.860;2023-05-02T04:56:09;98093.07;;;12.22;55.00
62057;BME280;48016;50.284;18.860;2023-05-02T04:58:36;98096.59;;;12.37;54.57
62057;BME280;48016;50.284;18.860;2023-05-02T05:01:03;98098.92;;;12.50;54.80
62057;BME280;48016;50.284;18.860;2023-05-02T05:03:29;98099.78;;;12.63;54.69
62057;BME280;48016;50.284;18.860;2023-05-02T05:05:56;98103.61;;;12.81;54.66
62057;BME280;48016;50.284;18.860;2023-05-02T05:08:23;98107.91;;;13.00;54.13
62057;BME280;48016;50.284;18.860;2023-05-02T05:10:50;98107.04;;;13.21;53.49
62057;BME280;48016;50.284;18.860;2023-05-02T05:13:17;98106.44;;;13.43;53.19
62057;BME280;48016;50.284;18.860;2023-05-02T05:15:43;98105.34;;;13.68;52.66
62057;BME280;48016;50.284;18.860;2023-05-02T05:18:10;98101.23;;;13.94;51.78
62057;BME280;48016;50.284;18.860;2023-05-02T05:20:37;98102.08;;;14.22;51.54
62057;BME280;48016;50.284;18.860;2023-05-02T05:23:03;98103.33;;;14.51;51.15
62057;BME280;48016;50.284;18.860;2023-05-02T05:25:30;98102.94;;;14.78;50.67
62057;BME280;48016;50.284;18.860;2023-05-02T05:27:59;98106.23;;;15.03;50.11
62057;BME280;48016;50.284;18.860;2023-05-02T05:30:25;98110.22;;;15.20;49.58
62057;BME280;48016;50.284;18.860;2023-05-02T05:32:52;98111.66;;;15.38;49.13
62057;BME280;48016;50.284;18.860;2023-05-02T05:35:18;98110.77;;;15.61;49.05
62057;BME280;48016;50.284;18.860;2023-05-02T05:37:45;98107.75;;;15.85;48.36
62057;BME280;48016;50.284;18.860;2023-05-02T05:40:12;98111.48;;;16.11;47.86
62057;BME280;48016;50.284;18.860;2023-05-02T05:42:38;98110.83;;;16.40;47.09
62057;BME280;48016;50.284;18.860;2023-05-02T05:45:05;98111.00;;;16.65;46.73
62057;BME280;48016;50.284;18.860;2023-05-02T05:47:32;98111.04;;;16.93;46.06
62057;BME280;48016;50.284;18.860;2023-05-02T05:49:59;98116.67;;;17.24;45.58
62057;BME280;48016;50.284;18.860;2023-05-02T05:52:25;98117.60;;;17.55;44.73
62057;BME280;48016;50.284;18.860;2023-05-02T05:54:53;98115.64;;;17.82;44.54
62057;BME280;48016;50.284;18.860;2023-05-02T05:57:21;98113.93;;;18.10;44.27
62057;BME280;48016;50.284;18.860;2023-05-02T05:59:48;98119.60;;;18.34;43.80
62057;BME280;48016;50.284;18.860;2023-05-02T06:02:15;98120.38;;;18.56;43.98
62057;BME280;48016;50.284;18.860;2023-05-02T06:04:41;98122.94;;;18.82;43.23
62057;BME280;48016;50.284;18.860;2023-05-02T06:07:08;98121.78;;;19.03;43.17
62057;BME280;48016;50.284;18.860;2023-05-02T06:09:35;98126.65;;;19.30;42.64
62057;BME280;48016;50.284;18.860;2023-05-02T06:12:01;98133.27;;;19.57;41.81
62057;BME280;48016;50.284;18.860;2023-05-02T06:14:28;98137.77;;;19.80;41.74
62057;BME280;48016;50.284;18.860;2023-05-02T06:16:58;98139.58;;;19.99;41.79
62057;BME280;48016;50.284;18.860;2023-05-02T06:19:24;98140.45;;;20.20;40.91
62057;BME280;48016;50.284;18.860;2023-05-02T06:21:51;98146.23;;;20.38;41.17
62057;BME280;48016;50.284;18.860;2023-05-02T06:24:18;98148.45;;;20.53;41.07
62057;BME280;48016;50.284;18.860;2023-05-02T06:26:44;98151.33;;;20.68;40.07
62057;BME280;48016;50.284;18.860;2023-05-02T06:29:12;98155.85;;;20.73;40.06
62057;BME280;48016;50.284;18.860;2023-05-02T06:31:38;98160.84;;;20.78;39.78
62057;BME280;48016;50.284;18.860;2023-05-02T06:34:05;98161.09;;;20.85;39.90
62057;BME280;48016;50.284;18.860;2023-05-02T06:36:32;98168.27;;;20.95;39.31
62057;BME280;48016;50.284;18.860;2023-05-02T06:38:58;98173.00;;;21.01;39.19
62057;BME280;48016;50.284;18.860;2023-05-02T06:41:25;98174.70;;;21.07;39.55
62057;BME280;48016;50.284;18.860;2023-05-02T06:43:51;98169.97;;;21.14;39.75
62057;BME280;48016;50.284;18.860;2023-05-02T06:46:18;98175.31;;;21.22;39.41
62057;BME280;48016;50.284;18.860;2023-05-02T06:48:46;98175.21;;;21.32;38.89
62057;BME280;48016;50.284;18.860;2023-05-02T06:51:13;98180.81;;;21.46;38.68
62057;BME280;48016;50.284;18.860;2023-05-02T06:53:40;98181.45;;;21.61;39.04
62057;BME280;48016;50.284;18.860;2023-05-02T06:56:07;98179.17;;;21.77;38.63
62057;BME280;48016;50.284;18.860;2023-05-02T06:58:33;98184.80;;;21.84;38.05
62057;BME280;48016;50.284;18.860;2023-05-02T07:01:00;98187.17;;;21.94;38.21
62057;BME280;48016;50.284;18.860;2023-05-02T07:03:26;98184.11;;;22.12;37.90
62057;BME280;48016;50.284;18.860;2023-05-02T07:05:53;98182.79;;;22.27;38.07
62057;BME280;48016;50.284;18.860;2023-05-02T07:08:21;98186.45;;;22.48;37.79
62057;BME280;48016;50.284;18.860;2023-05-02T07:10:49;98184.02;;;22.65;37.33
62057;BME280;48016;50.284;18.860;2023-05-02T07:13:16;98189.47;;;22.82;36.74
62057;BME280;48016;50.284;18.860;2023-05-02T07:15:42;98191.23;;;23.00;36.55
62057;BME280;48016;50.284;18.860;2023-05-02T07:18:09;98191.15;;;23.13;36.03
62057;BME280;48016;50.284;18.860;2023-05-02T07:20:35;98198.70;;;23.26;35.65
62057;BME280;48016;50.284;18.860;2023-05-02T07:23:04;98197.58;;;23.35;35.40
62057;BME280;48016;50.284;18.860;2023-05-02T07:25:30;98203.86;;;23.41;35.42
62057;BME280;48016;50.284;18.860;2023-05-02T07:27:57;98200.57;;;23.54;35.62
62057;BME280;48016;50.284;18.860;2023-05-02T07:30:23;98202.58;;;23.67;34.52
62057;BME280;48016;50.284;18.860;2023-05-02T07:32:50;98208.81;;;23.75;34.61
62057;BME280;48016;50.284;18.860;2023-05-02T07:35:17;98205.27;;;23.78;34.19
62057;BME280;48016;50.284;18.860;2023-05-02T07:37:43;98208.53;;;23.74;33.72
62057;BME280;48016;50.284;18.860;2023-05-02T07:40:10;98205.73;;;23.62;33.46
62057;BME280;48016;50.284;18.860;2023-05-02T07:42:37;98216.14;;;23.39;33.68
62057;BME280;48016;50.284;18.860;2023-05-02T07:45:04;98211.36;;;23.28;33.86
62057;BME280;48016;50.284;18.860;2023-05-02T07:47:30;98213.31;;;23.28;34.31
62057;BME280;48016;50.284;18.860;2023-05-02T07:49:57;98211.76;;;23.28;34.27
62057;BME280;48016;50.284;18.860;2023-05-02T07:52:24;98216.65;;;23.35;34.39
62057;BME280;48016;50.284;18.860;2023-05-02T07:54:51;98219.86;;;23.44;34.35
62057;BME280;48016;50.284;18.860;2023-05-02T07:57:17;98216.16;;;23.56;33.93
62057;BME280;48016;50.284;18.860;2023-05-02T07:59:44;98218.69;;;23.67;34.09
62057;BME280;48016;50.284;18.860;2023-05-02T08:02:11;98209.91;;;23.87;33.79
62057;BME280;48016;50.284;18.860;2023-05-02T08:04:39;98219.07;;;23.95;33.72
62057;BME280;48016;50.284;18.860;2023-05-02T08:07:06;98226.27;;;24.06;33.65
62057;BME280;48016;50.284;18.860;2023-05-02T08:09:32;98228.03;;;24.08;33.29
62057;BME280;48016;50.284;18.860;2023-05-02T08:11:59;98226.84;;;24.06;32.95
62057;BME280;48016;50.284;18.860;2023-05-02T08:14:28;98230.91;;;24.00;32.87
62057;BME280;48016;50.284;18.860;2023-05-02T08:16:54;98231.13;;;24.07;33.74
62057;BME280;48016;50.284;18.860;2023-05-02T08:19:21;98231.19;;;24.16;33.53
62057;BME280;48016;50.284;18.860;2023-05-02T08:21:47;98228.75;;;24.21;33.55
62057;BME280;48016;50.284;18.860;2023-05-02T08:24:14;98230.42;;;24.27;33.64
62057;BME280;48016;50.284;18.860;2023-05-02T08:26:40;98223.88;;;24.30;33.77
62057;BME280;48016;50.284;18.860;2023-05-02T08:29:07;98226.46;;;24.31;33.62
62057;BME280;48016;50.284;18.860;2023-05-02T08:31:38;98232.52;;;24.31;33.79
62057;BME280;48016;50.284;18.860;2023-05-02T08:34:05;98233.46;;;24.37;33.97
62057;BME280;48016;50.284;18.860;2023-05-02T08:36:31;98232.11;;;24.45;33.93
62057;BME280;48016;50.284;18.860;2023-05-02T08:38:58;98234.66;;;24.51;34.13
62057;BME280;48016;50.284;18.860;2023-05-02T08:41:28;98240.77;;;24.47;33.77
62057;BME280;48016;50.284;18.860;2023-05-02T08:43:55;98237.67;;;24.42;33.81
62057;BME280;48016;50.284;18.860;2023-05-02T08:46:22;98236.94;;;24.41;34.66
62057;BME280;48016;50.284;18.860;2023-05-02T08:48:50;98236.48;;;24.49;34.85
62057;BME280;48016;50.284;18.860;2023-05-02T08:51:17;98232.08;;;24.54;34.38
62057;BME280;48016;50.284;18.860;2023-05-02T08:53:44;98232.79;;;24.37;34.33
62057;BME280;48016;50.284;18.860;2023-05-02T08:56:11;98233.23;;;24.24;34.26
62057;BME280;48016;50.284;18.860;2023-05-02T08:58:39;98233.55;;;24.19;34.43
62057;BME280;48016;50.284;18.860;2023-05-02T09:01:18;98231.64;;;24.18;34.61
62057;BME280;48016;50.284;18.860;2023-05-02T09:03:47;98221.46;;;24.16;34.99
62057;BME280;48016;50.284;18.860;2023-05-02T09:06:20;98224.02;;;24.14;35.01
62057;BME280;48016;50.284;18.860;2023-05-02T09:08:49;98228.64;;;24.20;34.62
62057;BME280;48016;50.284;18.860;2023-05-02T09:11:16;98231.73;;;24.25;34.95
62057;BME280;48016;50.284;18.860;2023-05-02T09:13:45;98232.58;;;24.23;34.99
62057;BME280;48016;50.284;18.860;2023-05-02T09:16:17;98231.67;;;24.05;34.97
62057;BME280;48016;50.284;18.860;2023-05-02T09:18:46;98237.52;;;23.83;35.13
62057;BME280;48016;50.284;18.860;2023-05-02T09:21:17;98242.76;;;23.63;34.95
62057;BME280;48016;50.284;18.860;2023-05-02T09:23:54;98244.70;;;23.49;35.34
62057;BME280;48016;50.284;18.860;2023-05-02T09:26:23;98246.95;;;23.36;35.62
62057;BME280;48016;50.284;18.860;2023-05-02T09:28:55;98243.81;;;23.21;35.93
62057;BME280;48016;50.284;18.860;2023-05-02T09:31:26;98246.92;;;23.13;36.34
62057;BME280;48016;50.284;18.860;2023-05-02T09:33:55;98251.54;;;23.04;36.58
62057;BME280;48016;50.284;18.860;2023-05-02T09:36:23;98259.33;;;22.89;36.89
62057;BME280;48016;50.284;18.860;2023-05-02T09:38:49;98258.05;;;22.76;37.17
62057;BME280;48016;50.284;18.860;2023-05-02T09:41:16;98265.82;;;22.63;37.26
62057;BME280;48016;50.284;18.860;2023-05-02T09:43:54;98268.52;;;22.49;37.41
62057;BME280;48016;50.284;18.860;2023-05-02T09:46:22;98266.69;;;22.44;37.35
62057;BME280;48016;50.284;18.860;2023-05-02T09:48:56;98273.86;;;22.37;37.96
62057;BME280;48016;50.284;18.860;2023-05-02T09:51:24;98271.44;;;22.35;38.08
62057;BME280;48016;50.284;18.860;2023-05-02T09:53:51;98269.48;;;22.33;38.21
62057;BME280;48016;50.284;18.860;2023-05-02T09:56:18;98272.87;;;22.29;37.99
62057;BME280;48016;50.284;18.860;2023-05-02T09:58:44;98276.94;;;22.25;38.30
62057;BME280;48016;50.284;18.860;2023-05-02T10:01:15;98276.83;;;22.34;38.30
62057;BME280;48016;50.284;18.860;2023-05-02T10:03:45;98274.95;;;22.39;38.13
62057;BME280;48016;50.284;18.860;2023-05-02T10:06:14;98275.89;;;22.25;38.10
62057;BME280;48016;50.284;18.860;2023-05-02T10:08:42;98282.95;;;22.13;38.67
62057;BME280;48016;50.284;18.860;2023-05-02T10:11:11;98288.81;;;22.08;38.74
62057;BME280;48016;50.284;18.860;2023-05-02T10:13:39;98290.00;;;21.97;38.85
62057;BME280;48016;50.284;18.860;2023-05-02T10:16:11;98289.14;;;21.93;38.78
62057;BME280;48016;50.284;18.860;2023-05-02T10:21:07;98288.11;;;21.83;38.80
62057;BME280;48016;50.284;18.860;2023-05-02T10:23:34;98292.20;;;21.78;39.46
62057;BME280;48016;50.284;18.860;2023-05-02T10:26:01;98293.10;;;21.79;39.23
62057;BME280;48016;50.284;18.860;2023-05-02T10:28:29;98296.59;;;21.67;39.13
62057;BME280;48016;50.284;18.860;2023-05-02T10:30:56;98296.41;;;21.58;39.52
62057;BME280;48016;50.284;18.860;2023-05-02T10:33:23;98298.31;;;21.59;39.91
62057;BME280;48016;50.284;18.860;2023-05-02T10:35:51;98298.08;;;21.61;39.86
62057;BME280;48016;50.284;18.860;2023-05-02T10:38:20;98301.67;;;21.60;40.16
62057;BME280;48016;50.284;18.860;2023-05-02T10:41:01;98302.36;;;21.69;40.13
62057;BME280;48016;50.284;18.860;2023-05-02T10:43:31;98303.90;;;21.74;39.73
62057;BME280;48016;50.284;18.860;2023-05-02T10:45:59;98305.02;;;21.75;39.82
62057;BME280;48016;50.284;18.860;2023-05-02T10:48:29;98309.23;;;21.71;39.81
62057;BME280;48016;50.284;18.860;2023-05-02T10:50:56;98311.05;;;21.62;40.09
62057;BME280;48016;50.284;18.860;2023-05-02T10:53:24;98310.05;;;21.61;40.20
62057;BME280;48016;50.284;18.860;2023-05-02T10:56:10;98303.36;;;21.69;40.25
62057;BME280;48016;50.284;18.860;2023-05-02T10:58:37;98310.11;;;21.78;39.87
62057;BME280;48016;50.284;18.860;2023-05-02T11:03:56;98304.95;;;21.82;40.03
62057;BME280;48016;50.284;18.860;2023-05-02T11:06:28;98308.27;;;21.83;40.11
62057;BME280;48016;50.284;18.860;2023-05-02T11:11:44;98314.49;;;21.81;40.13
62057;BME280;48016;50.284;18.860;2023-05-02T11:24:46;98328.59;;;21.22;40.62
62057;BME280;48016;50.284;18.860;2023-05-02T11:29:59;98330.72;;;21.09;41.62
62057;BME280;48016;50.284;18.860;2023-05-02T11:37:59;98343.40;;;21.15;41.64
62057;BME280;48016;50.284;18.860;2023-05-02T11:40:26;98341.36;;;21.20;41.42
62057;BME280;48016;50.284;18.860;2023-05-02T11:42:54;98344.56;;;21.14;41.44
62057;BME280;48016;50.284;18.860;2023-05-02T11:45:21;98349.64;;;21.15;41.58
62057;BME280;48016;50.284;18.860;2023-05-02T11:47:57;98348.23;;;21.24;41.59
62057;BME280;48016;50.284;18.860;2023-05-02T11:50:24;98352.41;;;21.27;41.39
62057;BME280;48016;50.284;18.860;2023-05-02T11:52:53;98356.79;;;21.28;41.78
62057;BME280;48016;50.284;18.860;2023-05-02T11:55:20;98360.14;;;21.34;41.73
62057;BME280;48016;50.284;18.860;2023-05-02T11:57:46;98359.20;;;21.42;41.39
62057;BME280;48016;50.284;18.860;2023-05-02T12:00:13;98360.73;;;21.45;41.00
62057;BME280;48016;50.284;18.860;2023-05-02T12:02:44;98354.65;;;21.42;40.74
62057;BME280;48016;50.284;18.860;2023-05-02T12:05:12;98358.86;;;21.30;40.94
62057;BME280;48016;50.284;18.860;2023-05-02T12:07:44;98363.16;;;21.26;41.02
62057;BME280;48016;50.284;18.860;2023-05-02T12:10:12;98365.26;;;21.18;41.24
62057;BME280;48016;50.284;18.860;2023-05-02T12:12:41;98363.83;;;21.11;41.39
62057;BME280;48016;50.284;18.860;2023-05-02T12:15:10;98361.20;;;20.99;41.73
62057;BME280;48016;50.284;18.860;2023-05-02T12:17:45;98366.56;;;20.96;42.01
62057;BME280;48016;50.284;18.860;2023-05-02T12:20:13;98367.64;;;20.92;41.95
62057;BME280;48016;50.284;18.860;2023-05-02T12:22:40;98364.75;;;20.89;42.07
62057;BME280;48016;50.284;18.860;2023-05-02T12:25:07;98363.90;;;20.86;42.56
62057;BME280;48016;50.284;18.860;2023-05-02T12:27:34;98368.48;;;20.93;42.19
62057;BME280;48016;50.284;18.860;2023-05-02T12:30:01;98369.88;;;20.81;42.19
62057;BME280;48016;50.284;18.860;2023-05-02T12:32:36;98372.46;;;20.59;42.41
62057;BME280;48016;50.284;18.860;2023-05-02T12:35:04;98374.64;;;20.50;42.95
62057;BME280;48016;50.284;18.860;2023-05-02T12:37:31;98375.98;;;20.47;42.73
62057;BME280;48016;50.284;18.860;2023-05-02T12:39:57;98376.16;;;20.39;42.77
62057;BME280;48016;50.284;18.860;2023-05-02T12:42:25;98379.32;;;20.28;42.93
62057;BME280;48016;50.284;18.860;2023-05-02T12:44:52;98380.98;;;20.16;43.12
62057;BME280;48016;50.284;18.860;2023-05-02T12:47:19;98382.37;;;20.00;43.28
62057;BME280;48016;50.284;18.860;2023-05-02T12:49:55;98383.59;;;19.92;43.76
62057;BME280;48016;50.284;18.860;2023-05-02T12:52:45;98389.39;;;19.95;43.75
62057;BME280;48016;50.284;18.860;2023-05-02T12:57:42;98388.67;;;19.90;43.70
62057;BME280;48016;50.284;18.860;2023-05-02T13:00:10;98386.63;;;19.86;44.05
62057;BME280;48016;50.284;18.860;2023-05-02T13:02:37;98385.13;;;19.80;44.12
62057;BME280;48016;50.284;18.860;2023-05-02T13:05:19;98386.20;;;19.75;44.28
62057;BME280;48016;50.284;18.860;2023-05-02T13:07:46;98384.57;;;19.73;44.22
62057;BME280;48016;50.284;18.860;2023-05-02T13:10:12;98381.75;;;19.75;43.94
62057;BME280;48016;50.284;18.860;2023-05-02T13:12:40;98382.06;;;19.78;43.70
62057;BME280;48016;50.284;18.860;2023-05-02T13:15:07;98380.09;;;19.84;43.99
62057;BME280;48016;50.284;18.860;2023-05-02T13:17:34;98379.65;;;19.85;43.48
62057;BME280;48016;50.284;18.860;2023-05-02T13:20:01;98378.17;;;19.77;43.43
62057;BME280;48016;50.284;18.860;2023-05-02T13:22:28;98377.67;;;19.74;43.32
62057;BME280;48016;50.284;18.860;2023-05-02T13:24:55;98376.52;;;19.67;43.27
62057;BME280;48016;50.284;18.860;2023-05-02T13:27:23;98379.70;;;19.57;43.49
62057;BME280;48016;50.284;18.860;2023-05-02T13:29:50;98377.98;;;19.49;43.66
62057;BME280;48016;50.284;18.860;2023-05-02T13:32:17;98379.30;;;19.47;43.66
62057;BME280;48016;50.284;18.860;2023-05-02T13:34:44;98378.71;;;19.41;43.88